Time;durP1;ratioP1;P1;durP2;ratioP2;P2;SDS_P1;SDS_P2;PMS_P1;PMS_P2;Temp;Humidity;BMP_temperature;BMP_pressure;BME280_temperature;BME280_humidity;BME280_pressure;Samples;Min_cycle;Max_cycle;Signal;HPM_P1;HPM_P2
2024/04/18 00:00:21;;;;;;;;;;;;;;;23.14;44.81;93634.41;5413117;26;9541;-59
2024/04/18 00:02:48;;;;;;;;;;;;;;;23.19;45.03;93639.09;5382980;26;7318;-58
2024/04/18 00:05:30;;;;;;;;;;;;;;;23.11;45.19;93619.72;5396046;26;7322;-58
2024/04/18 00:07:56;;;;;;;;;;;;;;;23.09;45.10;93624.22;5386625;26;8903;-59
2024/04/18 00:10:25;;;;;;;;;;;;;;;23.13;45.38;93622.69;5363049;26;6992;-59
2024/04/18 00:12:54;;;;;;;;;;;;;;;23.14;45.16;93624.16;5410521;26;7704;-59
2024/04/18 00:15:25;;;;;;;;;;;;;;;23.05;45.18;93616.25;5382074;26;7033;-59
2024/04/18 00:17:53;;;;;;;;;;;;;;;23.11;45.50;93618.97;5415083;26;7121;-59
2024/04/18 00:20:36;;;;;;;;;;;;;;;23.09;45.50;93613.25;5377223;26;7066;-59
2024/04/18 00:23:02;;;;;;;;;;;;;;;23.01;45.09;93607.56;5378145;26;7334;-59
2024/04/18 00:25:38;;;;;;;;;;;;;;;23.01;45.18;93593.84;5403129;26;7382;-63
2024/04/18 00:28:19;;;;;;;;;;;;;;;23.06;45.30;93617.75;5382079;26;9563;-63
2024/04/18 00:30:45;;;;;;;;;;;;;;;22.97;45.06;93601.63;5412338;26;7313;-64
2024/04/18 00:33:11;;;;;;;;;;;;;;;22.99;45.26;93601.84;5412716;26;7974;-63
2024/04/18 00:35:40;;;;;;;;;;;;;;;23.02;45.48;93609.06;5381602;26;7367;-63
2024/04/18 00:38:08;;;;;;;;;;;;;;;22.90;45.26;93587.75;5411889;26;8112;-63
2024/04/18 00:40:38;;;;;;;;;;;;;;;22.95;45.12;93590.44;5378962;26;7207;-63
2024/04/18 00:43:37;;;;;;;;;;;;;;;23.01;45.43;93596.59;5447246;26;7166;-63
2024/04/18 00:46:06;;;;;;;;;;;;;;;22.98;45.24;93594.16;5238596;27;7052;-63
2024/04/18 00:48:33;;;;;;;;;;;;;;;22.92;44.86;93579.75;5236813;27;9772;-63
2024/04/18 00:51:11;;;;;;;;;;;;;;;22.93;45.24;93581.97;5237585;27;7377;-63
2024/04/18 00:53:46;;;;;;;;;;;;;;;22.97;45.62;93592.66;5238648;27;8057;-63
2024/04/18 00:56:13;;;;;;;;;;;;;;;22.94;45.52;93599.19;5244597;27;8079;-63
2024/04/18 00:58:47;;;;;;;;;;;;;;;22.85;44.87;93586.53;5210212;27;7076;-63
2024/04/18 01:01:26;;;;;;;;;;;;;;;22.89;45.15;93589.00;5246368;27;7326;-63
2024/04/18 01:03:55;;;;;;;;;;;;;;;22.88;45.42;93590.25;5236898;27;8718;-63
2024/04/18 01:06:26;;;;;;;;;;;;;;;22.87;44.92;93583.28;5233054;27;7805;-63
2024/04/18 01:08:53;;;;;;;;;;;;;;;22.90;45.35;93596.69;5237765;27;7014;-64
2024/04/18 01:11:23;;;;;;;;;;;;;;;22.88;44.84;93593.72;5237318;27;8767;-64
2024/04/18 01:13:49;;;;;;;;;;;;;;;22.78;45.19;93572.63;5263303;27;7146;-63
2024/04/18 01:16:16;;;;;;;;;;;;;;;22.80;44.77;93573.63;5266191;27;8562;-63
2024/04/18 01:18:50;;;;;;;;;;;;;;;22.83;45.50;93582.81;5271013;27;9032;-63
2024/04/18 01:21:41;;;;;;;;;;;;;;;22.84;45.07;93593.28;5302482;26;7018;-63
2024/04/18 01:24:20;;;;;;;;;;;;;;;22.69;45.22;93567.47;5412675;26;7016;-63
2024/04/18 01:27:34;;;;;;;;;;;;;;;22.84;45.00;93592.53;5380442;26;7042;-63
2024/04/18 01:30:00;;;;;;;;;;;;;;;22.78;45.50;93589.09;5411439;26;7626;-63
2024/04/18 01:32:29;;;;;;;;;;;;;;;22.74;45.21;93583.91;5412439;26;7490;-63
2024/04/18 01:34:55;;;;;;;;;;;;;;;22.80;44.97;93592.81;5412576;26;7962;-60
2024/04/18 01:37:24;;;;;;;;;;;;;;;22.78;45.21;93592.56;5411918;26;7005;-60
2024/04/18 01:39:57;;;;;;;;;;;;;;;22.74;45.24;93586.63;5381430;26;8093;-60
2024/04/18 01:42:23;;;;;;;;;;;;;;;22.73;45.38;93585.13;5381061;26;9280;-60
2024/04/18 01:44:52;;;;;;;;;;;;;;;22.69;45.11;93576.44;5377639;26;7720;-60
2024/04/18 01:47:18;;;;;;;;;;;;;;;22.79;45.59;93594.06;5408660;26;9032;-60
2024/04/18 01:49:45;;;;;;;;;;;;;;;22.74;45.36;93585.88;5405830;26;7746;-60
2024/04/18 01:52:18;;;;;;;;;;;;;;;22.71;45.05;93581.41;5379053;26;7064;-60
2024/04/18 01:54:46;;;;;;;;;;;;;;;22.74;45.18;93589.38;5380287;26;7892;-60
2024/04/18 01:57:52;;;;;;;;;;;;;;;22.75;45.27;93587.38;5380618;26;7090;-60
2024/04/18 02:00:28;;;;;;;;;;;;;;;22.74;45.70;93592.13;5310113;26;7563;-60
2024/04/18 02:03:14;;;;;;;;;;;;;;;22.73;45.36;93587.16;5372238;26;7062;-60
2024/04/18 02:06:16;;;;;;;;;;;;;;;22.70;44.91;93586.16;5339870;26;8153;-60
2024/04/18 02:09:21;;;;;;;;;;;;;;;22.69;45.17;93586.66;5304146;27;7077;-60
2024/04/18 02:12:02;;;;;;;;;;;;;;;22.62;45.33;93573.53;5300812;27;8587;-60
2024/04/18 02:14:28;;;;;;;;;;;;;;;22.67;45.22;93587.19;5297502;27;7333;-60
2024/04/18 02:17:08;;;;;;;;;;;;;;;22.63;45.54;93575.75;5298831;27;7330;-60
2024/04/18 02:19:45;;;;;;;;;;;;;;;22.67;45.61;93584.44;5298170;27;7022;-60
2024/04/18 02:22:12;;;;;;;;;;;;;;;22.64;45.55;93579.25;5269219;27;7358;-60
2024/04/18 02:25:06;;;;;;;;;;;;;;;22.65;45.25;93586.94;5267767;27;8954;-60
2024/04/18 02:28:01;;;;;;;;;;;;;;;22.66;45.51;93580.22;5269571;27;7053;-60
2024/04/18 02:30:27;;;;;;;;;;;;;;;22.63;45.73;93586.72;5234853;27;7716;-60
2024/04/18 02:32:53;;;;;;;;;;;;;;;22.63;45.07;93589.47;5236173;27;7197;-60
2024/04/18 02:35:22;;;;;;;;;;;;;;;22.60;45.59;93582.25;5297608;27;7294;-60
2024/04/18 02:37:57;;;;;;;;;;;;;;;22.59;45.41;93574.50;5306232;27;7406;-60
2024/04/18 02:40:24;;;;;;;;;;;;;;;22.61;45.14;93583.75;5278638;27;7045;-60
2024/04/18 02:42:50;;;;;;;;;;;;;;;22.59;45.30;93580.78;5325270;26;9296;-60
2024/04/18 02:45:19;;;;;;;;;;;;;;;22.52;45.47;93576.56;5338829;26;7053;-57
2024/04/18 02:47:45;;;;;;;;;;;;;;;22.50;45.82;93570.84;5340405;26;9063;-57
2024/04/18 02:50:41;;;;;;;;;;;;;;;22.57;45.53;93577.03;5314134;26;7123;-57
2024/04/18 02:53:08;;;;;;;;;;;;;;;22.56;45.49;93578.25;5273167;27;7555;-57
2024/04/18 02:55:47;;;;;;;;;;;;;;;22.53;45.30;93567.06;5272948;27;7941;-57
2024/04/18 02:58:19;;;;;;;;;;;;;;;22.58;45.13;93590.22;5272853;27;7346;-57
2024/04/18 03:00:46;;;;;;;;;;;;;;;22.56;45.32;93587.25;5288840;27;9352;-57
2024/04/18 03:03:42;;;;;;;;;;;;;;;22.56;45.38;93586.50;5306988;27;7415;-57
2024/04/18 03:06:19;;;;;;;;;;;;;;;22.51;45.65;93585.28;5266331;27;7454;-57
2024/04/18 03:08:59;;;;;;;;;;;;;;;22.51;45.42;93588.75;5239278;27;9558;-57
2024/04/18 03:11:26;;;;;;;;;;;;;;;22.51;45.50;93585.28;5261228;27;7115;-57
2024/04/18 03:13:56;;;;;;;;;;;;;;;22.50;45.39;93583.81;5219816;27;7126;-57
2024/04/18 03:16:22;;;;;;;;;;;;;;;22.50;45.04;93581.06;5248687;27;7378;-63
2024/04/18 03:18:48;;;;;;;;;;;;;;;22.49;45.59;93582.31;5267559;27;7096;-63
2024/04/18 03:21:24;;;;;;;;;;;;;;;22.44;45.07;93580.38;5239162;27;7113;-63
2024/04/18 03:24:19;;;;;;;;;;;;;;;22.46;45.21;93580.59;5238848;27;7370;-63
2024/04/18 03:27:03;;;;;;;;;;;;;;;22.41;45.41;93570.41;5244270;27;7756;-63
2024/04/18 03:29:31;;;;;;;;;;;;;;;22.46;45.28;93588.81;5288828;26;7312;-63
2024/04/18 03:31:57;;;;;;;;;;;;;;;22.44;45.52;93585.84;5306965;26;7362;-63
2024/04/18 03:34:23;;;;;;;;;;;;;;;22.40;45.58;93586.09;5306708;27;7281;-63
2024/04/18 03:37:04;;;;;;;;;;;;;;;22.40;45.67;93588.13;5278205;27;7134;-64
2024/04/18 03:39:32;;;;;;;;;;;;;;;22.33;45.53;93575.72;5306354;27;9481;-63
2024/04/18 03:41:59;;;;;;;;;;;;;;;22.32;45.84;93576.19;5322746;26;7270;-63
2024/04/18 03:44:26;;;;;;;;;;;;;;;22.40;45.34;93593.59;5383861;26;7710;-63
2024/04/18 03:46:59;;;;;;;;;;;;;;;22.38;45.51;93588.59;5382941;26;7112;-63
2024/04/18 03:49:32;;;;;;;;;;;;;;;22.37;45.14;93594.59;5436557;26;7151;-63
2024/04/18 03:52:14;;;;;;;;;;;;;;;22.33;45.45;93583.19;5383422;26;7917;-63
2024/04/18 03:54:47;;;;;;;;;;;;;;;22.32;45.47;93587.91;5398194;26;7041;-55
2024/04/18 03:57:22;;;;;;;;;;;;;;;22.38;45.29;93598.81;5378357;26;7042;-55
2024/04/18 03:59:49;;;;;;;;;;;;;;;22.26;45.64;93586.44;5381963;26;7380;-56
2024/04/18 04:02:55;;;;;;;;;;;;;;;22.36;45.59;93598.59;5381796;26;7215;-56
2024/04/18 04:05:40;;;;;;;;;;;;;;;22.35;45.74;93597.09;5378357;26;7116;-55
2024/04/18 04:08:09;;;;;;;;;;;;;;;22.26;45.50;93589.19;5394339;26;7040;-56
2024/04/18 04:10:35;;;;;;;;;;;;;;;22.25;45.46;93590.47;5412528;26;7031;-56
2024/04/18 04:13:03;;;;;;;;;;;;;;;22.33;45.64;93608.59;5412615;26;9102;-55
2024/04/18 04:15:39;;;;;;;;;;;;;;;22.25;45.52;93596.66;5413170;26;7058;-55
2024/04/18 04:18:05;;;;;;;;;;;;;;;22.32;45.46;93609.06;5415841;26;9361;-55
2024/04/18 04:20:38;;;;;;;;;;;;;;;22.31;45.47;93610.34;5410621;26;9138;-55
2024/04/18 04:23:08;;;;;;;;;;;;;;;22.30;45.65;93614.31;5448934;26;9047;-55
2024/04/18 04:25:36;;;;;;;;;;;;;;;22.26;45.76;93614.59;5449191;26;7306;-55
2024/04/18 04:28:04;;;;;;;;;;;;;;;22.20;45.57;93610.41;5433249;26;7421;-55
2024/04/18 04:31:00;;;;;;;;;;;;;;;22.31;45.96;93624.78;5412573;26;7115;-55
2024/04/18 04:33:28;;;;;;;;;;;;;;;22.34;45.43;93625.75;5337800;26;7995;-60
2024/04/18 04:35:57;;;;;;;;;;;;;;;22.31;46.47;93610.34;5339249;26;7086;-59
2024/04/18 04:38:38;;;;;;;;;;;;;;;22.45;51.44;93631.16;5310716;26;7079;-58
2024/04/18 04:41:04;;;;;;;;;;;;;;;22.78;54.12;93633.69;5339867;26;7138;-58
2024/04/18 04:43:35;;;;;;;;;;;;;;;23.13;54.07;93638.41;5339619;26;7125;-59
2024/04/18 04:46:16;;;;;;;;;;;;;;;23.38;52.30;93639.91;5349639;26;7483;-60
2024/04/18 04:48:45;;;;;;;;;;;;;;;23.52;51.51;93638.03;5335941;26;6867;-57
2024/04/18 04:51:21;;;;;;;;;;;;;;;23.71;51.16;93656.06;5330638;26;7257;-58
2024/04/18 04:54:07;;;;;;;;;;;;;;;23.85;50.24;93656.91;5339508;26;7067;-59
2024/04/18 04:56:33;;;;;;;;;;;;;;;23.88;50.89;93650.41;5339206;26;7110;-57
2024/04/18 04:59:01;;;;;;;;;;;;;;;23.95;49.12;93650.53;5339707;26;7065;-56
2024/04/18 05:01:42;;;;;;;;;;;;;;;24.02;48.46;93662.19;5341047;26;9519;-60
2024/04/18 05:04:17;;;;;;;;;;;;;;;24.07;47.99;93653.19;5335048;26;7218;-62
2024/04/18 05:06:50;;;;;;;;;;;;;;;23.90;46.32;93658.84;5298469;26;7679;-62
2024/04/18 05:09:20;;;;;;;;;;;;;;;23.48;45.76;93651.31;5342765;26;9359;-62
2024/04/18 05:12:02;;;;;;;;;;;;;;;23.27;46.07;93656.50;5349458;26;7612;-61
2024/04/18 05:14:28;;;;;;;;;;;;;;;23.08;46.23;93661.13;5399491;26;7210;-60
2024/04/18 05:17:20;;;;;;;;;;;;;;;22.93;46.66;93664.25;5375461;26;8045;-61
2024/04/18 05:19:46;;;;;;;;;;;;;;;22.82;47.20;93663.56;5410960;26;8952;-59
2024/04/18 05:22:22;;;;;;;;;;;;;;;22.75;48.27;93667.59;5409689;26;8011;-63
2024/04/18 05:25:25;;;;;;;;;;;;;;;22.77;47.21;93672.59;5406944;26;9356;-63
2024/04/18 05:28:13;;;;;;;;;;;;;;;22.75;47.03;93670.34;5273867;27;7491;-63
2024/04/18 05:31:00;;;;;;;;;;;;;;;22.72;47.42;93670.63;5293061;27;7397;-63
2024/04/18 05:33:27;;;;;;;;;;;;;;;22.72;46.89;93671.38;5303801;27;7339;-63
2024/04/18 05:35:53;;;;;;;;;;;;;;;22.74;47.12;93674.34;5301719;27;7541;-63
2024/04/18 05:38:22;;;;;;;;;;;;;;;22.68;46.66;93676.41;5303311;26;7110;-63
2024/04/18 05:40:51;;;;;;;;;;;;;;;22.77;47.14;93686.31;5319813;26;7052;-63
2024/04/18 05:43:20;;;;;;;;;;;;;;;22.65;46.07;93674.66;5321673;26;7115;-63
2024/04/18 05:45:53;;;;;;;;;;;;;;;22.69;46.30;93677.88;5303841;26;7371;-64
2024/04/18 05:48:23;;;;;;;;;;;;;;;22.81;46.02;93700.47;5322223;26;7031;-66
2024/04/18 05:50:51;;;;;;;;;;;;;;;22.82;46.26;93689.00;5318064;26;7482;-63
2024/04/18 05:53:18;;;;;;;;;;;;;;;22.78;45.94;93685.03;5296316;26;9471;-62
2024/04/18 05:55:47;;;;;;;;;;;;;;;22.81;45.84;93684.78;5306677;26;7140;-63
2024/04/18 05:58:17;;;;;;;;;;;;;;;22.88;45.98;93689.69;5320031;26;7325;-61
2024/04/18 06:00:49;;;;;;;;;;;;;;;22.91;46.08;93693.41;5329162;26;7244;-62
2024/04/18 06:03:34;;;;;;;;;;;;;;;23.00;47.44;93713.06;5417964;26;8058;-61
2024/04/18 06:06:19;;;;;;;;;;;;;;;23.05;50.21;93708.78;5444346;26;7010;-62
2024/04/18 06:08:46;;;;;;;;;;;;;;;23.43;54.48;93724.22;5416357;26;8611;-62
2024/04/18 06:11:15;;;;;;;;;;;;;;;23.81;55.91;93727.84;5447068;26;7937;-61
2024/04/18 06:13:44;;;;;;;;;;;;;;;24.07;56.28;93722.63;5440536;26;7601;-59
2024/04/18 06:16:18;;;;;;;;;;;;;;;24.36;56.54;93730.00;5434653;26;7636;-59
2024/04/18 06:18:51;;;;;;;;;;;;;;;24.63;54.99;93730.91;5378855;26;7382;-59
2024/04/18 06:21:17;;;;;;;;;;;;;;;24.74;53.83;93722.53;5413108;26;7290;-60
2024/04/18 06:23:47;;;;;;;;;;;;;;;24.87;50.79;93736.38;5401627;26;8990;-62
2024/04/18 06:26:15;;;;;;;;;;;;;;;24.93;46.83;93733.53;5446699;26;7188;-60
2024/04/18 06:28:41;;;;;;;;;;;;;;;24.83;44.12;93722.19;5435264;26;7303;-60
2024/04/18 06:31:07;;;;;;;;;;;;;;;24.53;44.88;93718.81;5410652;26;7048;-59
2024/04/18 06:33:36;;;;;;;;;;;;;;;24.13;43.94;93726.03;5401153;26;7232;-57
2024/04/18 06:36:02;;;;;;;;;;;;;;;23.80;44.76;93731.84;5447097;26;7315;-57
2024/04/18 06:38:29;;;;;;;;;;;;;;;23.39;45.23;93712.03;5450173;26;7212;-57
2024/04/18 06:40:55;;;;;;;;;;;;;;;23.28;45.07;93723.81;5418823;26;9085;-57
2024/04/18 06:43:35;;;;;;;;;;;;;;;23.24;45.38;93735.06;5450298;26;7414;-57
2024/04/18 06:46:02;;;;;;;;;;;;;;;23.18;45.65;93739.13;5387833;26;7621;-57
2024/04/18 06:48:59;;;;;;;;;;;;;;;23.13;45.23;93748.88;5434797;26;7046;-57
2024/04/18 06:51:45;;;;;;;;;;;;;;;23.03;45.89;93739.44;5301401;27;8488;-57
2024/04/18 06:54:12;;;;;;;;;;;;;;;23.01;45.37;93743.97;5319105;26;7564;-57
2024/04/18 06:56:58;;;;;;;;;;;;;;;23.03;45.75;93750.41;5317909;26;8629;-57
2024/04/18 06:59:24;;;;;;;;;;;;;;;22.96;45.93;93750.22;5306342;26;9228;-57
2024/04/18 07:01:56;;;;;;;;;;;;;;;22.96;45.81;93756.47;5310462;26;7044;-57
2024/04/18 07:04:22;;;;;;;;;;;;;;;22.88;46.09;93741.78;5312619;26;7312;-58
2024/04/18 07:06:50;;;;;;;;;;;;;;;22.93;46.08;93751.25;5319171;26;7070;-57
2024/04/18 07:09:25;;;;;;;;;;;;;;;22.98;45.97;93764.94;5305954;26;7803;-58
2024/04/18 07:12:08;;;;;;;;;;;;;;;23.00;45.55;93765.16;5325950;26;7764;-58
2024/04/18 07:14:35;;;;;;;;;;;;;;;22.92;45.74;93750.47;5314706;26;7058;-58
2024/04/18 07:17:15;;;;;;;;;;;;;;;22.95;45.85;93749.47;5321621;26;7584;-57
2024/04/18 07:20:02;;;;;;;;;;;;;;;23.12;45.60;93768.56;5359640;26;7056;-57
2024/04/18 07:22:42;;;;;;;;;;;;;;;23.11;45.37;93778.81;5308071;26;9219;-57
2024/04/18 07:25:26;;;;;;;;;;;;;;;23.20;45.50;93784.00;5306352;27;8644;-56
2024/04/18 07:27:56;;;;;;;;;;;;;;;23.22;45.25;93784.22;5351570;26;8616;-56
2024/04/18 07:30:22;;;;;;;;;;;;;;;23.20;45.25;93781.25;5416763;26;8947;-55
2024/04/18 07:32:48;;;;;;;;;;;;;;;23.23;45.17;93788.44;5449404;26;7198;-55
2024/04/18 07:35:16;;;;;;;;;;;;;;;23.29;45.03;93790.41;5416240;26;6949;-55
2024/04/18 07:37:59;;;;;;;;;;;;;;;23.22;44.97;93783.47;5457709;26;7523;-56
2024/04/18 07:40:39;;;;;;;;;;;;;;;23.34;44.95;93804.09;5424937;26;7071;-56
2024/04/18 07:43:25;;;;;;;;;;;;;;;23.36;44.79;93803.63;5418117;26;7305;-56
2024/04/18 07:46:26;;;;;;;;;;;;;;;23.35;45.21;93815.84;5424474;26;7381;-56
2024/04/18 07:48:52;;;;;;;;;;;;;;;23.27;45.32;93802.63;5380491;26;8113;-56
2024/04/18 07:51:22;;;;;;;;;;;;;;;23.37;45.25;93814.06;5406789;26;7979;-56
2024/04/18 07:53:51;;;;;;;;;;;;;;;23.31;45.18;93809.84;5401095;26;7147;-55
2024/04/18 07:56:54;;;;;;;;;;;;;;;23.40;45.12;93826.78;5412617;26;7072;-55
2024/04/18 07:59:23;;;;;;;;;;;;;;;23.30;43.89;93817.31;5319899;26;7194;-56
2024/04/18 08:01:51;;;;;;;;;;;;;;;23.35;44.70;93824.06;5340117;26;8983;-56
2024/04/18 08:04:30;;;;;;;;;;;;;;;23.41;44.60;93833.00;5343113;26;7672;-55
2024/04/18 08:07:22;;;;;;;;;;;;;;;23.43;44.22;93838.72;5366699;26;7028;-55
2024/04/18 08:09:50;;;;;;;;;;;;;;;23.46;44.54;93843.94;5353882;26;7220;-55
2024/04/18 08:12:18;;;;;;;;;;;;;;;23.44;44.22;93837.47;5372127;26;7348;-56
2024/04/18 08:14:45;;;;;;;;;;;;;;;23.49;44.39;93842.91;5337028;26;7036;-56
2024/04/18 08:17:11;;;;;;;;;;;;;;;23.56;44.36;93858.09;5340172;26;7982;-55
2024/04/18 08:19:54;;;;;;;;;;;;;;;23.62;44.06;93862.28;5340149;26;9699;-55
2024/04/18 08:22:57;;;;;;;;;;;;;;;23.76;44.31;93879.66;5339417;26;7730;-55
2024/04/18 08:25:32;;;;;;;;;;;;;;;23.74;44.03;93868.44;5210743;27;7944;-55
2024/04/18 08:28:18;;;;;;;;;;;;;;;23.84;43.58;93873.09;5204382;27;7493;-55
2024/04/18 08:31:02;;;;;;;;;;;;;;;23.85;43.43;93871.13;5194254;27;9185;-55
2024/04/18 08:33:31;;;;;;;;;;;;;;;23.93;43.32;93892.00;5229987;27;7399;-59
2024/04/18 08:35:59;;;;;;;;;;;;;;;24.02;43.27;93898.44;5252990;27;7031;-59
2024/04/18 08:38:46;;;;;;;;;;;;;;;24.08;43.48;93899.16;5262665;27;9611;-59
2024/04/18 08:41:30;;;;;;;;;;;;;;;24.07;42.86;93897.69;5251867;27;7446;-59
2024/04/18 08:43:57;;;;;;;;;;;;;;;24.07;42.88;93900.44;5250659;27;7458;-59
2024/04/18 08:46:39;;;;;;;;;;;;;;;24.14;42.87;93905.38;5237643;27;7251;-59
2024/04/18 08:49:28;;;;;;;;;;;;;;;24.12;42.83;93905.13;5209862;27;7310;-59
2024/04/18 08:52:27;;;;;;;;;;;;;;;24.19;43.02;93915.56;5210231;27;7106;-59
2024/04/18 08:55:10;;;;;;;;;;;;;;;24.15;42.60;93910.34;5112593;27;7387;-59
2024/04/18 08:57:48;;;;;;;;;;;;;;;24.16;42.56;93916.59;5138119;27;7560;-58
2024/04/18 09:00:14;;;;;;;;;;;;;;;24.23;42.75;93925.00;5230840;27;7073;-59
2024/04/18 09:02:55;;;;;;;;;;;;;;;24.21;42.82;93921.28;5270256;27;6989;-59
2024/04/18 09:05:23;;;;;;;;;;;;;;;24.23;42.97;93924.28;5271296;27;7337;-59
2024/04/18 09:07:51;;;;;;;;;;;;;;;24.32;42.61;93934.91;5271611;27;7212;-59
2024/04/18 09:10:30;;;;;;;;;;;;;;;24.34;42.72;93933.16;5270551;27;8557;-59
2024/04/18 09:12:58;;;;;;;;;;;;;;;24.29;42.75;93931.22;5271989;27;7257;-59
2024/04/18 09:15:27;;;;;;;;;;;;;;;24.31;42.60;93942.44;5271003;27;7336;-59
2024/04/18 09:18:14;;;;;;;;;;;;;;;24.36;42.50;93947.13;5270471;27;8986;-59
2024/04/18 09:20:43;;;;;;;;;;;;;;;24.35;42.15;93945.66;5271019;27;9128;-59
2024/04/18 09:23:12;;;;;;;;;;;;;;;24.27;42.54;93941.22;5270762;27;6959;-59
2024/04/18 09:25:59;;;;;;;;;;;;;;;24.38;42.59;93955.59;5270140;27;7046;-59
2024/04/18 09:28:26;;;;;;;;;;;;;;;24.39;42.42;93956.34;5270400;27;7406;-59
2024/04/18 09:30:54;;;;;;;;;;;;;;;24.26;42.52;93937.72;5313502;26;7145;-59
2024/04/18 09:33:25;;;;;;;;;;;;;;;24.31;42.40;93950.69;5401806;26;8731;-59
2024/04/18 09:35:56;;;;;;;;;;;;;;;24.38;42.44;93969.34;5377081;26;9166;-60
2024/04/18 09:38:29;;;;;;;;;;;;;;;24.41;42.29;93973.09;5377192;26;6882;-59
2024/04/18 09:41:11;;;;;;;;;;;;;;;24.45;42.49;93979.78;5388274;26;7113;-59
2024/04/18 09:44:23;;;;;;;;;;;;;;;24.48;42.30;93976.03;5408954;26;7073;-59
2024/04/18 09:47:04;;;;;;;;;;;;;;;24.50;42.75;93979.00;5302393;27;8748;-59
2024/04/18 09:49:31;;;;;;;;;;;;;;;24.46;41.94;93972.28;5338067;26;7101;-59
2024/04/18 09:52:36;;;;;;;;;;;;;;;24.57;42.26;93988.69;5338594;26;7340;-59
2024/04/18 09:55:16;;;;;;;;;;;;;;;24.57;42.11;93978.44;5303425;27;7311;-59
2024/04/18 09:57:55;;;;;;;;;;;;;;;24.62;42.21;93980.38;5332189;26;7340;-58
2024/04/18 10:00:22;;;;;;;;;;;;;;;24.69;41.85;93993.56;5302517;27;7345;-58
2024/04/18 10:02:50;;;;;;;;;;;;;;;24.71;41.88;93988.31;5300286;27;7356;-58
2024/04/18 10:05:19;;;;;;;;;;;;;;;24.68;41.74;93992.06;5303272;27;9354;-59
2024/04/18 10:07:51;;;;;;;;;;;;;;;24.76;41.72;93997.03;5304076;27;7225;-59
2024/04/18 10:10:49;;;;;;;;;;;;;;;24.83;41.62;94010.97;5318923;26;7404;-59
2024/04/18 10:13:41;;;;;;;;;;;;;;;24.87;41.57;94016.19;5235724;27;6985;-59
2024/04/18 10:16:15;;;;;;;;;;;;;;;24.82;41.36;94011.47;5202538;27;8040;-59
2024/04/18 10:18:55;;;;;;;;;;;;;;;24.83;41.50;94013.75;5203255;27;7305;-59
2024/04/18 10:21:35;;;;;;;;;;;;;;;24.81;41.58;94002.50;5273626;27;7102;-59
2024/04/18 10:24:35;;;;;;;;;;;;;;;24.91;41.48;94022.16;5327815;26;7234;-58
2024/04/18 10:27:11;;;;;;;;;;;;;;;24.79;41.37;94004.28;5303658;27;7662;-58
2024/04/18 10:30:02;;;;;;;;;;;;;;;24.91;41.52;94028.41;5304033;27;7995;-58
2024/04/18 10:32:31;;;;;;;;;;;;;;;24.89;41.39;94030.94;5287660;27;8849;-58
2024/04/18 10:35:02;;;;;;;;;;;;;;;24.92;41.48;94037.41;5310703;26;7030;-58
2024/04/18 10:37:30;;;;;;;;;;;;;;;24.89;41.47;94032.94;5321758;26;6983;-58
2024/04/18 10:39:59;;;;;;;;;;;;;;;24.91;41.35;94038.66;5338127;26;7112;-58
2024/04/18 10:42:32;;;;;;;;;;;;;;;24.84;41.34;94037.22;5318542;26;7341;-59
2024/04/18 10:44:59;;;;;;;;;;;;;;;24.78;41.29;94028.28;5303813;27;7281;-59
2024/04/18 10:48:02;;;;;;;;;;;;;;;24.92;41.50;94051.16;5332954;26;7118;-58
2024/04/18 10:50:35;;;;;;;;;;;;;;;24.84;41.38;94044.75;5368715;26;7899;-59
2024/04/18 10:53:07;;;;;;;;;;;;;;;24.84;41.23;94053.00;5415557;26;6874;-59
2024/04/18 10:55:35;;;;;;;;;;;;;;;24.80;41.28;94044.25;5446437;26;7308;-58
2024/04/18 10:58:22;;;;;;;;;;;;;;;24.80;41.44;94047.00;5421798;26;7039;-58
2024/04/18 11:01:08;;;;;;;;;;;;;;;24.88;41.32;94064.47;5378454;26;6991;-58
2024/04/18 11:03:36;;;;;;;;;;;;;;;24.84;41.46;94064.00;5414948;26;7188;-58
2024/04/18 11:06:18;;;;;;;;;;;;;;;24.84;41.74;94069.50;5434921;26;7047;-58
2024/04/18 11:09:16;;;;;;;;;;;;;;;24.85;41.41;94074.47;5449298;26;7288;-57
2024/04/18 11:12:13;;;;;;;;;;;;;;;24.83;41.58;94065.25;5376667;26;7403;-58
2024/04/18 11:14:58;;;;;;;;;;;;;;;24.78;41.58;94060.53;5376982;26;7121;-58
2024/04/18 11:17:40;;;;;;;;;;;;;;;24.77;41.42;94059.81;5410110;26;9023;-58
2024/04/18 11:20:23;;;;;;;;;;;;;;;24.82;41.74;94070.00;5379122;26;7029;-58
2024/04/18 11:23:03;;;;;;;;;;;;;;;24.81;41.61;94076.03;5375532;26;7170;-58
2024/04/18 11:25:43;;;;;;;;;;;;;;;24.82;41.87;94078.25;5351864;26;7056;-58
2024/04/18 11:28:11;;;;;;;;;;;;;;;24.76;41.47;94066.56;5353308;26;9443;-58
2024/04/18 11:30:44;;;;;;;;;;;;;;;24.80;41.68;94086.28;5384120;26;7382;-58
2024/04/18 11:33:11;;;;;;;;;;;;;;;24.81;41.69;94087.78;5404264;26;7152;-57
2024/04/18 11:35:37;;;;;;;;;;;;;;;24.79;41.62;94082.03;5387307;26;7931;-58
2024/04/18 11:38:08;;;;;;;;;;;;;;;24.79;41.69;94087.53;5396600;26;7337;-58
2024/04/18 11:40:37;;;;;;;;;;;;;;;24.70;41.79;94080.34;5401235;26;7718;-58
2024/04/18 11:43:04;;;;;;;;;;;;;;;24.72;41.76;94079.81;5382447;26;7068;-58
2024/04/18 11:45:30;;;;;;;;;;;;;;;24.73;41.76;94084.78;5379276;26;7133;-59
2024/04/18 11:47:59;;;;;;;;;;;;;;;24.79;41.72;94095.03;5406708;26;7036;-60
2024/04/18 11:50:26;;;;;;;;;;;;;;;24.70;41.79;94085.09;5395402;26;7221;-60
2024/04/18 11:52:53;;;;;;;;;;;;;;;24.69;41.79;94089.06;5437397;26;7075;-60
2024/04/18 11:55:22;;;;;;;;;;;;;;;24.75;42.08;94094.56;5445334;26;7377;-60
2024/04/18 11:57:52;;;;;;;;;;;;;;;24.71;41.75;94092.81;5400790;26;7253;-59
2024/04/18 12:00:31;;;;;;;;;;;;;;;24.73;41.55;94101.28;5423104;26;7442;-59
2024/04/18 12:03:34;;;;;;;;;;;;;;;24.71;41.99;94098.31;5438556;26;7452;-60
2024/04/18 12:06:13;;;;;;;;;;;;;;;24.75;41.75;94105.59;5283242;26;8477;-65
2024/04/18 12:08:41;;;;;;;;;;;;;;;24.73;41.88;94109.53;5281137;27;6999;-65
2024/04/18 12:11:20;;;;;;;;;;;;;;;24.68;42.15;94110.31;5302957;27;7140;-65
2024/04/18 12:13:55;;;;;;;;;;;;;;;24.68;42.17;94113.06;5287053;27;7281;-65
2024/04/18 12:16:27;;;;;;;;;;;;;;;24.67;42.11;94116.34;5267965;27;7345;-65
2024/04/18 12:19:10;;;;;;;;;;;;;;;24.65;42.12;94114.13;5252611;27;7303;-61
2024/04/18 12:21:36;;;;;;;;;;;;;;;24.69;42.16;94122.81;5284368;27;8979;-61
2024/04/18 12:24:06;;;;;;;;;;;;;;;24.64;42.05;94120.13;5309754;26;7153;-62
2024/04/18 12:26:34;;;;;;;;;;;;;;;24.61;42.23;94123.91;5305875;26;7390;-64
2024/04/18 12:29:06;;;;;;;;;;;;;;;24.62;42.13;94122.66;5315880;26;9069;-62
2024/04/18 12:31:41;;;;;;;;;;;;;;;24.60;42.12;94125.88;5309980;26;7365;-62
2024/04/18 12:34:07;;;;;;;;;;;;;;;24.57;42.41;94126.94;5333810;26;7358;-62
2024/04/18 12:36:33;;;;;;;;;;;;;;;24.64;42.35;94145.59;5339732;26;8046;-63
2024/04/18 12:39:01;;;;;;;;;;;;;;;24.61;42.18;94143.13;5322859;26;7334;-63
2024/04/18 12:41:29;;;;;;;;;;;;;;;24.63;42.36;94148.88;5371336;26;6945;-63
2024/04/18 12:43:57;;;;;;;;;;;;;;;24.62;42.25;94148.13;5431340;26;7689;-62
2024/04/18 12:46:32;;;;;;;;;;;;;;;24.58;42.33;94144.91;5444383;26;7171;-63
2024/04/18 12:49:10;;;;;;;;;;;;;;;24.51;42.35;94139.94;5425290;26;7041;-63
2024/04/18 12:51:58;;;;;;;;;;;;;;;24.48;42.46;94149.22;5415616;26;8922;-63
2024/04/18 12:54:41;;;;;;;;;;;;;;;24.31;42.58;94143.09;5411660;26;8659;-63
2024/04/18 12:57:14;;;;;;;;;;;;;;;24.26;43.02;94157.59;5405380;26;7399;-63
2024/04/18 12:59:42;;;;;;;;;;;;;;;24.08;43.05;94140.94;5402281;26;9481;-63
2024/04/18 13:02:37;;;;;;;;;;;;;;;24.02;43.29;94160.16;5412940;26;7415;-63
2024/04/18 13:05:24;;;;;;;;;;;;;;;23.89;43.51;94159.97;5373616;26;7003;-63
2024/04/18 13:07:53;;;;;;;;;;;;;;;23.80;43.69;94149.25;5390787;26;7414;-63
2024/04/18 13:10:45;;;;;;;;;;;;;;;23.71;43.93;94155.03;5397880;26;9545;-63
2024/04/18 13:13:14;;;;;;;;;;;;;;;23.52;44.40;94138.34;5387831;26;7299;-59
2024/04/18 13:16:14;;;;;;;;;;;;;;;23.51;44.56;94141.63;5404156;26;7234;-58
2024/04/18 13:18:50;;;;;;;;;;;;;;;23.36;44.68;94133.66;5272111;27;9136;-58
2024/04/18 13:21:31;;;;;;;;;;;;;;;23.27;44.73;94127.66;5303479;27;9607;-58
2024/04/18 13:23:59;;;;;;;;;;;;;;;23.27;45.35;94137.38;5271868;27;7390;-59
2024/04/18 13:26:35;;;;;;;;;;;;;;;23.17;45.37;94135.41;5284978;27;7401;-58
2024/04/18 13:29:02;;;;;;;;;;;;;;;23.17;45.38;94144.38;5284281;27;7817;-59
2024/04/18 13:31:39;;;;;;;;;;;;;;;23.06;45.50;94133.41;5284742;27;7724;-59
2024/04/18 13:34:05;;;;;;;;;;;;;;;23.03;45.71;94130.94;5265223;27;7153;-59
2024/04/18 13:36:31;;;;;;;;;;;;;;;23.09;45.76;94142.66;5253932;27;7077;-59
2024/04/18 13:39:00;;;;;;;;;;;;;;;23.06;45.86;94138.91;5284666;27;7292;-59